createdAt,value
2019-01-15T00:01:51.170Z,1.80
2019-01-15T00:06:55.566Z,1.87
2019-01-15T00:11:59.911Z,2.23
2019-01-15T00:17:05.426Z,2.13
2019-01-15T00:22:09.758Z,2.30
2019-01-15T00:27:14.168Z,2.00
2019-01-15T00:32:18.506Z,2.47
2019-01-15T00:37:22.857Z,1.83
2019-01-15T00:42:29.996Z,2.03
2019-01-15T00:47:34.353Z,2.23
2019-01-15T00:52:38.719Z,2.40
2019-01-15T00:57:43.058Z,2.20
2019-01-15T01:02:47.602Z,1.80
2019-01-15T01:07:51.964Z,2.47
2019-01-15T01:12:56.304Z,2.37
2019-01-15T01:18:00.615Z,2.00
2019-01-15T01:23:05.338Z,2.10
2019-01-15T01:28:09.739Z,2.20
2019-01-15T01:33:14.191Z,2.10
2019-01-15T01:38:18.556Z,2.70
2019-01-15T01:43:22.926Z,2.33
2019-01-15T01:48:27.322Z,2.07
2019-01-15T01:53:31.669Z,2.40
2019-01-15T01:58:36.030Z,2.17
2019-01-15T02:03:40.362Z,2.77
2019-01-15T02:08:44.693Z,2.50
2019-01-15T02:13:49.034Z,3.30
2019-01-15T02:18:53.409Z,2.83
2019-01-15T02:23:57.791Z,2.80
2019-01-15T02:29:02.171Z,2.97
2019-01-15T02:34:06.598Z,2.73
2019-01-15T02:39:10.922Z,2.33
2019-01-15T02:44:15.279Z,3.03
2019-01-15T02:49:19.617Z,2.57
2019-01-15T02:54:23.974Z,3.60
2019-01-15T02:59:28.327Z,2.60
2019-01-15T03:04:32.768Z,2.40
2019-01-15T03:09:37.210Z,2.80
2019-01-15T03:14:41.648Z,3.00
2019-01-15T03:19:46.090Z,2.87
2019-01-15T03:24:50.439Z,2.23
2019-01-15T03:29:54.791Z,2.80
2019-01-15T03:34:59.715Z,2.60
2019-01-15T03:40:09.820Z,2.70
2019-01-15T03:45:14.446Z,2.83
2019-01-15T03:50:18.771Z,2.73
2019-01-15T03:55:23.331Z,2.50
2019-01-15T04:00:27.685Z,2.70
2019-01-15T04:05:32.321Z,2.80
2019-01-15T04:10:36.692Z,2.50
2019-01-15T04:15:41.357Z,3.20
2019-01-15T04:20:46.060Z,3.23
2019-01-15T04:25:50.558Z,2.87
2019-01-15T04:30:54.938Z,2.43
2019-01-15T04:35:59.457Z,2.70
2019-01-15T04:41:03.809Z,2.43
2019-01-15T04:46:08.251Z,3.10
2019-01-15T04:51:12.605Z,2.50
2019-01-15T04:56:16.978Z,2.90
2019-01-15T05:01:21.327Z,3.07
2019-01-15T05:06:25.699Z,2.73
2019-01-15T05:11:30.058Z,2.83
2019-01-15T05:16:34.453Z,2.70
2019-01-15T05:21:38.783Z,3.70
2019-01-15T05:26:43.195Z,2.77
2019-01-15T05:31:47.567Z,3.17
2019-01-15T05:36:52.022Z,2.90
2019-01-15T05:41:56.820Z,2.60
2019-01-15T05:47:01.252Z,3.17
2019-01-15T05:52:06.133Z,2.90
2019-01-15T05:57:10.546Z,2.73
2019-01-15T06:02:15.997Z,2.67
2019-01-15T06:07:20.342Z,2.53
2019-01-15T06:12:24.749Z,2.83
2019-01-15T06:17:29.100Z,3.17
2019-01-15T06:22:33.474Z,2.73
2019-01-15T06:27:37.842Z,2.80
2019-01-15T06:32:43.061Z,3.00
2019-01-15T06:37:47.505Z,2.87
2019-01-15T06:42:51.864Z,3.33
2019-01-15T06:47:56.280Z,2.70
2019-01-15T06:53:01.517Z,2.87
2019-01-15T06:58:06.053Z,2.70
2019-01-15T07:03:10.397Z,2.50
2019-01-15T07:08:14.742Z,2.93
2019-01-15T07:13:19.106Z,2.53
2019-01-15T07:18:23.488Z,3.00
2019-01-15T07:23:27.900Z,3.00
2019-01-15T07:28:32.257Z,2.63
2019-01-15T07:33:36.606Z,2.63
2019-01-15T07:38:41.156Z,3.10
2019-01-15T07:43:45.541Z,3.13
2019-01-15T07:48:50.051Z,2.50
2019-01-15T07:53:54.411Z,2.47
2019-01-15T07:58:58.742Z,2.30
2019-01-15T08:04:03.121Z,3.20
2019-01-15T08:09:08.924Z,2.77
2019-01-15T08:14:13.391Z,2.50
2019-01-15T08:19:17.803Z,2.53
2019-01-15T08:24:22.143Z,2.50
2019-01-15T08:29:27.554Z,2.60
2019-01-15T08:34:31.943Z,3.17
2019-01-15T08:39:36.318Z,2.10
2019-01-15T08:44:40.768Z,2.75
2019-01-15T08:49:45.121Z,2.17
2019-01-15T08:54:49.534Z,2.00
2019-01-15T08:59:53.914Z,3.00
2019-01-15T09:04:58.293Z,1.90
2019-01-15T09:10:02.655Z,1.93
2019-01-15T09:15:10.420Z,2.30
2019-01-15T09:20:16.877Z,1.70
2019-01-15T09:25:21.258Z,2.37
2019-01-15T09:30:25.724Z,1.75
2019-01-15T09:35:30.953Z,2.40
2019-01-15T09:40:35.363Z,1.77
2019-01-15T09:45:39.804Z,2.27
2019-01-15T09:50:46.445Z,2.03
2019-01-15T09:55:50.883Z,1.90
2019-01-15T10:00:56.236Z,1.90
2019-01-15T10:06:00.548Z,2.53
2019-01-15T10:11:05.095Z,2.17
2019-01-15T10:16:11.202Z,2.50
2019-01-15T10:21:15.736Z,2.13
2019-01-15T10:26:20.126Z,1.90
2019-01-15T10:32:01.452Z,2.03
2019-01-15T10:37:04.851Z,1.73
2019-01-15T10:42:09.205Z,2.30
2019-01-15T10:47:13.537Z,2.03
2019-01-15T10:52:17.975Z,2.17
2019-01-15T10:57:22.314Z,2.57
2019-01-15T11:02:26.729Z,2.50
2019-01-15T11:07:31.037Z,2.27
2019-01-15T11:12:35.384Z,3.20
2019-01-15T11:17:39.754Z,3.17
2019-01-15T11:22:44.355Z,3.17
2019-01-15T11:27:48.715Z,3.70
2019-01-15T11:32:53.151Z,3.27
2019-01-15T11:37:57.593Z,3.40
2019-01-15T11:43:01.949Z,2.85
2019-01-15T11:48:06.693Z,3.50
2019-01-15T11:53:11.146Z,3.47
2019-01-15T11:58:15.479Z,3.50
2019-01-15T12:03:26.949Z,4.00
2019-01-15T12:08:34.141Z,3.37
2019-01-15T12:13:52.233Z,3.40
2019-01-15T12:19:00.971Z,3.80
2019-01-15T12:24:23.661Z,3.93
2019-01-15T12:29:29.797Z,3.43
2019-01-15T12:34:52.345Z,3.90
2019-01-15T12:39:58.357Z,3.67
2019-01-15T12:45:18.272Z,3.70
2019-01-15T12:50:26.709Z,3.63
2019-01-15T12:55:48.808Z,3.87
2019-01-15T13:06:34.891Z,4.10
2019-01-15T13:11:49.863Z,3.93
2019-01-15T13:16:58.559Z,4.53
2019-01-15T13:22:10.596Z,4.63
2019-01-15T13:27:25.073Z,4.20
2019-01-15T13:32:33.961Z,4.33
2019-01-15T13:37:40.927Z,4.63
2019-01-15T13:43:03.293Z,4.37
2019-01-15T13:48:18.301Z,4.23
2019-01-15T13:53:40.231Z,4.30
2019-01-15T13:58:46.284Z,3.90
2019-01-15T14:03:58.600Z,4.10
2019-01-15T14:09:10.199Z,4.47
2019-01-15T14:14:16.194Z,4.07
2019-01-15T14:19:27.921Z,4.20
2019-01-15T14:24:39.804Z,3.70
2019-01-15T14:30:01.171Z,3.63
2019-01-15T14:35:11.260Z,4.10
2019-01-15T14:40:17.332Z,4.07
2019-01-15T14:45:35.377Z,3.80
2019-01-15T14:50:47.253Z,3.30
2019-01-15T14:55:59.123Z,4.30
2019-01-15T15:01:07.879Z,3.50
2019-01-15T15:06:19.533Z,4.00
2019-01-15T15:11:34.073Z,4.10
2019-01-15T15:16:49.021Z,4.07
2019-01-15T15:22:07.037Z,3.87
2019-01-15T15:27:15.914Z,4.08
2019-01-15T15:32:25.005Z,4.60
2019-01-15T15:37:40.281Z,3.97
2019-01-15T15:42:46.273Z,3.83
2019-01-15T15:48:01.378Z,4.43
2019-01-15T15:53:16.215Z,4.33
2019-01-15T15:58:28.006Z,4.30
2019-01-15T16:03:34.008Z,4.20
2019-01-15T16:08:43.027Z,4.60
2019-01-15T16:13:49.037Z,4.90
2019-01-15T16:19:07.176Z,4.83
2019-01-15T16:24:31.354Z,4.47
2019-01-15T16:29:53.915Z,4.90
2019-01-15T16:35:16.070Z,4.30
2019-01-15T16:40:38.707Z,4.80
2019-01-15T16:45:56.923Z,4.90
2019-01-15T16:51:02.923Z,4.30
2019-01-15T16:56:12.018Z,4.73
2019-01-15T17:01:34.149Z,5.23
2019-01-15T17:06:43.121Z,5.07
2019-01-15T17:11:54.782Z,4.50
2019-01-15T17:17:18.869Z,4.90
2019-01-15T17:22:41.340Z,5.23
2019-01-15T17:27:50.167Z,5.03
2019-01-15T17:33:02.428Z,4.27
2019-01-15T17:38:08.873Z,4.90
2019-01-15T17:43:15.316Z,5.03
2019-01-15T17:48:30.652Z,5.20
2019-01-15T17:53:42.887Z,5.00
2019-01-15T17:58:55.502Z,5.20
2019-01-15T18:04:19.727Z,5.63
2019-01-15T18:09:28.866Z,4.90
2019-01-15T18:14:37.785Z,5.93
2019-01-15T18:19:43.773Z,5.93
2019-01-15T18:25:05.969Z,6.33
2019-01-15T18:30:22.915Z,6.73
2019-01-15T18:35:32.011Z,6.30
2019-01-15T18:40:53.385Z,6.53
2019-01-15T18:46:02.268Z,5.70
2019-01-15T18:51:08.284Z,5.60
2019-01-15T18:56:20.191Z,6.30
2019-01-15T19:01:44.018Z,5.97
2019-01-15T19:06:52.462Z,5.97
2019-01-15T19:12:01.242Z,6.27
2019-01-15T19:17:08.365Z,6.30
2019-01-15T19:22:15.050Z,6.67
2019-01-15T19:27:27.070Z,6.20
2019-01-15T19:32:38.916Z,5.95
2019-01-15T19:37:45.094Z,6.05
2019-01-15T19:42:51.100Z,6.57
2019-01-15T19:47:57.162Z,6.60
2019-01-15T19:53:12.105Z,6.40
2019-01-15T19:58:24.964Z,6.03
2019-01-15T20:03:42.921Z,5.77
2019-01-15T20:09:05.210Z,5.17
2019-01-15T20:14:18.419Z,5.40
2019-01-15T20:19:30.289Z,4.77
2019-01-15T20:24:36.298Z,5.13
2019-01-15T20:29:54.710Z,4.87
2019-01-15T20:35:09.886Z,4.87
2019-01-15T20:40:21.827Z,5.33
2019-01-15T20:45:27.837Z,4.90
2019-01-15T20:50:45.566Z,4.53
2019-01-15T20:56:08.141Z,4.57
2019-01-15T21:01:15.271Z,4.30
2019-01-15T21:06:27.508Z,4.90
2019-01-15T21:11:39.605Z,4.00
2019-01-15T21:17:01.553Z,4.00
2019-01-15T21:22:25.876Z,3.20
2019-01-15T21:27:31.889Z,3.30
2019-01-15T21:32:54.183Z,2.83
2019-01-15T21:38:00.264Z,3.40
2019-01-15T21:43:13.305Z,3.17
2019-01-15T21:48:25.050Z,3.00
2019-01-15T21:53:31.062Z,3.23
2019-01-15T21:58:53.323Z,3.10
2019-01-15T22:04:01.884Z,3.00
2019-01-15T22:09:11.720Z,3.00
2019-01-15T22:14:23.868Z,3.20
2019-01-15T22:19:29.957Z,2.90
2019-01-15T22:24:36.028Z,2.80
2019-01-15T22:29:45.065Z,2.70
2019-01-15T22:35:02.737Z,2.90
2019-01-15T22:40:25.792Z,2.83
2019-01-15T22:46:02.057Z,2.70
2019-01-15T22:51:11.787Z,2.58
2019-01-15T22:56:20.718Z,2.77
2019-01-15T23:01:41.812Z,2.47
2019-01-15T23:06:54.170Z,2.70
2019-01-15T23:12:00.145Z,2.50
2019-01-15T23:17:15.296Z,2.97
2019-01-15T23:22:31.770Z,2.87
2019-01-15T23:27:56.361Z,2.70
2019-01-15T23:33:08.490Z,2.90
2019-01-15T23:38:17.305Z,2.90
2019-01-15T23:43:41.121Z,2.77
2019-01-15T23:48:47.117Z,2.60
2019-01-15T23:54:02.089Z,2.70
2019-01-15T23:59:24.507Z,2.70
